createdAt,value
2019-05-26T00:00:05.563Z,18.80
2019-05-26T00:02:32.949Z,18.80
2019-05-26T00:05:00.365Z,18.60
2019-05-26T00:07:30.642Z,18.70
2019-05-26T00:09:56.911Z,18.60
2019-05-26T00:12:24.259Z,18.60
2019-05-26T00:14:51.603Z,18.50
2019-05-26T00:17:19.041Z,18.60
2019-05-26T00:19:46.361Z,18.70
2019-05-26T00:22:13.704Z,18.60
2019-05-26T00:24:41.045Z,18.60
2019-05-26T00:27:08.349Z,18.60
2019-05-26T00:29:35.675Z,18.70
2019-05-26T00:32:03.093Z,18.50
2019-05-26T00:34:30.416Z,18.40
2019-05-26T00:36:57.758Z,18.40
2019-05-26T00:39:25.130Z,18.50
2019-05-26T00:41:52.672Z,18.60
2019-05-26T00:44:20.041Z,18.50
2019-05-26T00:46:47.379Z,18.40
2019-05-26T00:49:14.713Z,18.30
2019-05-26T00:51:42.114Z,18.30
2019-05-26T00:54:09.554Z,18.40
2019-05-26T00:56:36.986Z,18.50
2019-05-26T00:59:04.306Z,18.40
2019-05-26T01:01:31.654Z,18.40
2019-05-26T01:03:58.989Z,18.20
2019-05-26T01:06:26.353Z,18.00
2019-05-26T01:08:53.752Z,17.90
2019-05-26T01:11:21.105Z,17.90
2019-05-26T01:13:48.406Z,17.90
2019-05-26T01:16:15.762Z,17.70
2019-05-26T01:18:43.061Z,17.60
2019-05-26T01:21:10.396Z,17.60
2019-05-26T01:23:37.718Z,17.60
2019-05-26T01:26:05.103Z,17.70
2019-05-26T01:28:32.493Z,17.70
2019-05-26T01:30:59.925Z,17.90
2019-05-26T01:33:27.218Z,17.90
2019-05-26T01:35:54.640Z,17.80
2019-05-26T01:38:24.442Z,17.80
2019-05-26T01:40:51.896Z,17.90
2019-05-26T01:43:19.267Z,18.00
2019-05-26T01:45:46.605Z,18.10
2019-05-26T01:48:13.930Z,17.90
2019-05-26T01:50:41.262Z,17.90
2019-05-26T01:53:08.629Z,18.10
2019-05-26T01:55:36.089Z,18.20
2019-05-26T01:58:03.923Z,18.20
2019-05-26T02:00:31.330Z,18.30
2019-05-26T02:02:58.675Z,18.30
2019-05-26T02:05:26.075Z,18.30
2019-05-26T02:07:53.430Z,18.20
2019-05-26T02:10:20.890Z,18.10
2019-05-26T02:12:48.232Z,18.20
2019-05-26T02:15:16.159Z,18.30
2019-05-26T02:17:43.536Z,18.20
2019-05-26T02:20:11.309Z,18.30
2019-05-26T02:22:38.918Z,18.20
2019-05-26T02:25:06.707Z,18.30
2019-05-26T02:27:34.115Z,18.40
2019-05-26T02:30:01.492Z,18.40
2019-05-26T02:32:28.912Z,18.40
2019-05-26T02:34:56.344Z,18.40
2019-05-26T02:37:23.755Z,18.40
2019-05-26T02:39:51.105Z,18.40
2019-05-26T02:42:18.554Z,18.30
2019-05-26T02:44:45.911Z,18.30
2019-05-26T02:47:13.208Z,18.30
2019-05-26T02:49:40.651Z,18.30
2019-05-26T02:52:08.089Z,18.20
2019-05-26T02:54:35.446Z,18.20
2019-05-26T02:57:02.838Z,18.20
2019-05-26T02:59:30.272Z,18.20
2019-05-26T03:02:03.868Z,18.20
2019-05-26T03:04:26.828Z,18.30
2019-05-26T03:06:54.285Z,18.20
2019-05-26T03:09:23.927Z,18.00
2019-05-26T03:11:53.458Z,18.00
2019-05-26T03:14:21.275Z,17.90
2019-05-26T03:16:50.421Z,17.80
2019-05-26T03:19:18.616Z,17.70
2019-05-26T03:21:47.882Z,17.80
2019-05-26T03:24:17.603Z,18.00
2019-05-26T03:26:44.942Z,18.00
2019-05-26T03:29:12.264Z,18.00
2019-05-26T03:31:39.676Z,18.10
2019-05-26T03:34:07.033Z,18.00
2019-05-26T03:36:34.500Z,17.90
2019-05-26T03:39:01.950Z,18.00
2019-05-26T03:41:29.333Z,18.10
2019-05-26T03:43:56.660Z,18.00
2019-05-26T03:46:23.986Z,17.70
2019-05-26T03:48:51.946Z,17.80
2019-05-26T03:51:19.271Z,17.80
2019-05-26T03:53:46.690Z,18.00
2019-05-26T03:56:14.007Z,18.10
2019-05-26T03:58:41.342Z,18.20
2019-05-26T04:01:08.744Z,18.20
2019-05-26T04:03:36.072Z,18.30
2019-05-26T04:06:03.843Z,18.30
2019-05-26T04:08:31.282Z,18.30
2019-05-26T04:10:58.680Z,18.30
2019-05-26T04:13:26.033Z,18.30
2019-05-26T04:15:53.484Z,18.30
2019-05-26T04:18:20.902Z,18.30
2019-05-26T04:20:48.200Z,18.20
2019-05-26T04:23:15.531Z,18.20
2019-05-26T04:25:42.912Z,18.00
2019-05-26T04:28:10.330Z,18.00
2019-05-26T04:30:37.654Z,18.00
2019-05-26T04:33:05.062Z,17.90
2019-05-26T04:35:32.391Z,17.80
2019-05-26T04:37:59.706Z,17.80
2019-05-26T04:40:28.241Z,17.70
2019-05-26T04:42:55.866Z,17.90
2019-05-26T04:45:23.219Z,17.80
2019-05-26T04:47:50.549Z,17.80
2019-05-26T04:50:17.877Z,17.90
2019-05-26T04:53:04.504Z,17.80
2019-05-26T04:55:14.550Z,18.00
2019-05-26T04:57:41.894Z,17.80
2019-05-26T05:00:09.393Z,17.70
2019-05-26T05:02:36.737Z,17.80
2019-05-26T05:05:04.247Z,18.00
2019-05-26T05:07:31.598Z,18.00
2019-05-26T05:09:58.989Z,18.00
2019-05-26T05:12:26.395Z,18.00
2019-05-26T05:14:53.754Z,17.90
2019-05-26T05:17:21.081Z,18.10
2019-05-26T05:19:48.593Z,18.20
2019-05-26T05:22:15.973Z,18.20
2019-05-26T05:24:43.360Z,18.20
2019-05-26T05:27:10.669Z,18.20
2019-05-26T05:29:37.974Z,18.00
2019-05-26T05:32:06.227Z,18.10
2019-05-26T05:34:33.561Z,18.20
2019-05-26T05:37:00.898Z,18.20
2019-05-26T05:39:28.209Z,18.20
2019-05-26T05:41:55.558Z,18.10
2019-05-26T05:44:22.991Z,18.10
2019-05-26T05:46:50.445Z,18.00
2019-05-26T05:49:17.823Z,18.10
2019-05-26T05:51:45.248Z,18.20
2019-05-26T05:54:12.625Z,18.20
2019-05-26T05:56:39.974Z,18.20
2019-05-26T05:59:07.262Z,18.30
2019-05-26T06:01:34.576Z,18.30
2019-05-26T06:04:01.880Z,18.30
2019-05-26T06:06:29.193Z,18.20
2019-05-26T06:08:56.591Z,18.30
2019-05-26T06:11:23.922Z,18.30
2019-05-26T06:13:51.310Z,18.30
2019-05-26T06:16:18.699Z,18.30
2019-05-26T06:18:46.023Z,18.40
2019-05-26T06:21:13.366Z,18.40
2019-05-26T06:23:40.802Z,18.50
2019-05-26T06:26:08.222Z,18.50
2019-05-26T06:28:35.524Z,18.50
2019-05-26T06:31:02.920Z,18.40
2019-05-26T06:33:30.389Z,18.40
2019-05-26T06:35:57.666Z,18.40
2019-05-26T06:38:24.986Z,18.50
2019-05-26T06:40:52.350Z,18.60
2019-05-26T06:43:19.679Z,18.80
2019-05-26T06:45:47.022Z,18.50
2019-05-26T06:48:14.413Z,18.50
2019-05-26T06:50:41.736Z,18.60
2019-05-26T06:53:09.062Z,18.70
2019-05-26T06:55:36.390Z,18.60
2019-05-26T06:58:03.733Z,18.80
2019-05-26T07:00:31.056Z,18.50
2019-05-26T07:02:58.408Z,18.40
2019-05-26T07:05:25.714Z,18.80
2019-05-26T07:07:53.068Z,18.90
2019-05-26T07:10:20.362Z,18.60
2019-05-26T07:12:47.721Z,18.70
2019-05-26T07:15:16.582Z,18.50
2019-05-26T07:17:43.894Z,18.80
2019-05-26T07:20:11.759Z,18.90
2019-05-26T07:22:39.135Z,19.10
2019-05-26T07:25:07.310Z,19.30
2019-05-26T07:27:34.723Z,19.40
2019-05-26T07:30:02.050Z,19.40
2019-05-26T07:32:29.565Z,19.50
2019-05-26T07:34:56.935Z,19.60
2019-05-26T07:37:24.268Z,19.60
2019-05-26T07:39:51.588Z,19.50
2019-05-26T07:42:19.026Z,19.30
2019-05-26T07:44:46.512Z,19.40
2019-05-26T07:47:13.864Z,19.40
2019-05-26T07:49:41.191Z,19.50
2019-05-26T07:52:08.492Z,19.30
2019-05-26T07:54:35.811Z,19.60
2019-05-26T07:57:03.135Z,19.60
2019-05-26T07:59:30.435Z,19.20
2019-05-26T08:01:57.766Z,19.20
2019-05-26T08:04:25.129Z,19.50
2019-05-26T08:06:52.476Z,19.70
2019-05-26T08:09:19.808Z,19.40
2019-05-26T08:11:47.130Z,19.50
2019-05-26T08:14:14.499Z,19.60
2019-05-26T08:16:41.835Z,19.90
2019-05-26T08:19:09.126Z,20.10
2019-05-26T08:21:36.478Z,19.50
2019-05-26T08:24:04.552Z,19.60
2019-05-26T08:26:31.874Z,19.80
2019-05-26T08:28:59.173Z,20.00
2019-05-26T08:31:26.503Z,19.80
2019-05-26T08:33:53.912Z,19.90
2019-05-26T08:36:21.371Z,19.80
2019-05-26T08:38:48.709Z,20.20
2019-05-26T08:41:16.071Z,20.60
2019-05-26T08:43:43.414Z,21.10
2019-05-26T08:46:10.762Z,21.00
2019-05-26T08:48:38.178Z,21.30
2019-05-26T08:51:05.531Z,21.50
2019-05-26T08:53:32.924Z,21.80
2019-05-26T08:56:00.237Z,22.10
2019-05-26T08:58:29.437Z,22.60
2019-05-26T09:00:56.775Z,22.70
2019-05-26T09:03:24.181Z,22.80
2019-05-26T09:05:51.577Z,22.80
2019-05-26T09:08:18.945Z,23.10
2019-05-26T09:10:46.248Z,23.30
2019-05-26T09:13:13.565Z,23.10
2019-05-26T09:15:41.619Z,23.20
2019-05-26T09:18:08.988Z,23.30
2019-05-26T09:20:36.303Z,23.20
2019-05-26T09:23:03.727Z,23.20
2019-05-26T09:25:31.047Z,23.60
2019-05-26T09:27:58.350Z,23.90
2019-05-26T09:30:25.671Z,24.20
2019-05-26T09:32:52.957Z,24.20
2019-05-26T09:35:20.271Z,24.30
2019-05-26T09:37:47.599Z,24.60
2019-05-26T09:40:15.297Z,24.60
2019-05-26T09:42:42.660Z,24.80
2019-05-26T09:45:10.258Z,25.20
2019-05-26T09:47:37.619Z,25.10
2019-05-26T09:50:05.676Z,25.10
2019-05-26T09:52:33.090Z,25.30
2019-05-26T09:55:00.503Z,25.70
2019-05-26T09:57:27.813Z,26.00
2019-05-26T09:59:55.181Z,26.30
2019-05-26T10:02:22.550Z,26.60
2019-05-26T10:04:49.949Z,26.70
2019-05-26T10:07:17.413Z,26.30
2019-05-26T10:09:44.765Z,26.60
2019-05-26T10:12:12.064Z,27.20
2019-05-26T10:14:39.403Z,27.40
2019-05-26T10:17:06.733Z,27.50
2019-05-26T10:19:34.062Z,27.50
2019-05-26T10:22:01.462Z,27.10
2019-05-26T10:24:28.799Z,26.80
2019-05-26T10:26:56.171Z,26.60
2019-05-26T10:29:23.606Z,26.40
2019-05-26T10:31:50.958Z,26.20
2019-05-26T10:34:18.457Z,26.40
2019-05-26T10:36:45.891Z,26.70
2019-05-26T10:39:13.271Z,26.50
2019-05-26T10:41:40.589Z,26.20
2019-05-26T10:44:07.978Z,26.40
2019-05-26T10:46:35.283Z,26.20
2019-05-26T10:51:41.633Z,25.50
2019-05-26T10:54:09.037Z,25.90
2019-05-26T10:56:36.430Z,26.00
2019-05-26T10:59:03.875Z,26.10
2019-05-26T11:01:31.243Z,26.20
2019-05-26T11:03:58.594Z,26.40
2019-05-26T11:06:26.089Z,25.70
2019-05-26T11:08:53.535Z,25.30
2019-05-26T11:11:20.920Z,25.60
2019-05-26T11:14:01.814Z,25.60
2019-05-26T11:16:17.552Z,25.60
2019-05-26T11:18:44.953Z,25.70
2019-05-26T11:21:12.665Z,26.10
2019-05-26T11:23:40.177Z,26.50
2019-05-26T11:26:07.498Z,26.60
2019-05-26T11:28:34.859Z,25.90
2019-05-26T11:31:02.264Z,25.60
2019-05-26T11:33:29.665Z,25.60
2019-05-26T11:35:57.046Z,25.20
2019-05-26T11:38:24.447Z,25.90
2019-05-26T11:40:51.909Z,26.10
2019-05-26T11:43:19.315Z,26.00
2019-05-26T11:45:46.636Z,25.80
2019-05-26T11:48:13.961Z,26.00
2019-05-26T11:50:41.668Z,26.40
2019-05-26T11:53:09.058Z,26.60
2019-05-26T11:55:36.417Z,26.80
2019-05-26T11:58:03.761Z,26.50
2019-05-26T12:00:31.085Z,26.50
2019-05-26T12:03:00.448Z,26.10
2019-05-26T12:05:27.648Z,26.00
2019-05-26T12:07:55.013Z,25.50
2019-05-26T12:10:22.377Z,25.30
2019-05-26T12:12:49.706Z,25.50
2019-05-26T12:15:17.263Z,25.70
2019-05-26T12:17:44.590Z,26.00
2019-05-26T12:20:12.210Z,26.00
2019-05-26T12:22:39.512Z,26.20
2019-05-26T12:25:07.695Z,26.20
2019-05-26T12:27:35.109Z,26.30
2019-05-26T12:30:02.645Z,26.50
2019-05-26T12:32:30.074Z,26.60
2019-05-26T12:34:57.452Z,26.60
2019-05-26T12:37:24.882Z,26.60
2019-05-26T12:39:52.282Z,26.60
2019-05-26T12:42:19.635Z,26.80
2019-05-26T12:44:49.890Z,27.00
2019-05-26T12:47:16.229Z,27.00
2019-05-26T12:49:43.625Z,26.90
2019-05-26T12:52:10.977Z,26.90
2019-05-26T12:54:38.410Z,26.90
2019-05-26T12:57:05.749Z,26.80
2019-05-26T12:59:33.176Z,26.90
2019-05-26T13:02:00.559Z,27.00
2019-05-26T13:04:27.907Z,26.70
2019-05-26T13:06:55.307Z,26.60
2019-05-26T13:09:22.810Z,26.70
2019-05-26T13:11:50.163Z,26.60
2019-05-26T13:14:17.525Z,26.40
2019-05-26T13:16:44.909Z,26.10
2019-05-26T13:19:12.279Z,25.80
2019-05-26T13:21:39.689Z,25.40
2019-05-26T13:24:07.099Z,25.20
2019-05-26T13:26:34.591Z,25.40
2019-05-26T13:29:01.935Z,25.70
2019-05-26T13:31:29.274Z,26.00
2019-05-26T13:33:56.610Z,26.20
2019-05-26T13:36:23.945Z,26.10
2019-05-26T13:38:51.384Z,26.30
2019-05-26T13:41:18.794Z,26.20
2019-05-26T13:43:46.146Z,26.10
2019-05-26T13:46:13.456Z,26.20
2019-05-26T13:48:40.800Z,25.70
2019-05-26T13:51:08.098Z,25.60
2019-05-26T13:53:35.430Z,25.60
2019-05-26T13:56:02.746Z,25.50
2019-05-26T13:58:30.104Z,25.70
2019-05-26T14:00:57.466Z,25.90
2019-05-26T14:03:24.914Z,25.80
2019-05-26T14:05:52.295Z,25.90
2019-05-26T14:08:19.616Z,25.90
2019-05-26T14:10:46.948Z,25.70
2019-05-26T14:13:14.263Z,25.60
2019-05-26T14:15:41.666Z,25.70
2019-05-26T14:18:09.011Z,25.70
2019-05-26T14:20:37.524Z,25.80
2019-05-26T14:23:06.181Z,25.80
2019-05-26T14:25:33.639Z,25.90
2019-05-26T14:28:01.067Z,25.80
2019-05-26T14:30:28.417Z,26.00
2019-05-26T14:32:55.869Z,25.80
2019-05-26T14:35:23.196Z,25.60
2019-05-26T14:37:50.539Z,25.60
2019-05-26T14:40:18.267Z,25.70
2019-05-26T14:42:45.592Z,25.60
2019-05-26T14:45:12.906Z,25.60
2019-05-26T14:47:40.343Z,25.50
2019-05-26T14:50:08.873Z,25.30
2019-05-26T14:52:36.256Z,25.40
2019-05-26T14:55:04.103Z,25.60
2019-05-26T14:57:31.455Z,25.60
2019-05-26T14:59:58.770Z,25.70
2019-05-26T15:02:26.098Z,25.90
2019-05-26T15:04:53.542Z,26.00
2019-05-26T15:07:20.861Z,25.90
2019-05-26T15:09:48.196Z,25.90
2019-05-26T15:12:15.542Z,25.80
2019-05-26T15:14:42.959Z,25.90
2019-05-26T15:17:10.290Z,25.90
2019-05-26T15:19:37.716Z,25.80
2019-05-26T15:22:05.131Z,25.50
2019-05-26T15:24:32.553Z,25.50
2019-05-26T15:26:59.853Z,25.40
2019-05-26T15:29:27.167Z,25.60
2019-05-26T15:31:54.543Z,25.70
2019-05-26T15:34:21.987Z,25.80
2019-05-26T15:36:49.609Z,25.80
2019-05-26T15:39:16.925Z,25.90
2019-05-26T15:41:44.360Z,25.40
2019-05-26T15:44:11.666Z,25.30
2019-05-26T15:46:39.004Z,25.40
2019-05-26T15:49:06.323Z,25.60
2019-05-26T15:51:33.658Z,25.70
2019-05-26T15:54:01.089Z,25.80
2019-05-26T15:56:28.442Z,25.90
2019-05-26T15:58:55.783Z,26.00
2019-05-26T16:01:23.137Z,25.90
2019-05-26T16:03:50.584Z,25.90
2019-05-26T16:06:17.915Z,25.90
2019-05-26T16:08:45.232Z,25.80
2019-05-26T16:11:12.530Z,25.70
2019-05-26T16:13:39.850Z,25.70
2019-05-26T16:16:07.185Z,25.80
2019-05-26T16:18:34.532Z,25.80
2019-05-26T16:21:03.244Z,25.70
2019-05-26T16:23:30.931Z,25.50
2019-05-26T16:25:58.300Z,25.40
2019-05-26T16:28:25.662Z,25.40
2019-05-26T16:30:53.016Z,25.30
2019-05-26T16:33:20.359Z,25.20
2019-05-26T16:35:47.674Z,25.30
2019-05-26T16:38:15.033Z,25.10
2019-05-26T16:40:42.326Z,25.00
2019-05-26T16:43:09.708Z,25.20
2019-05-26T16:45:37.286Z,25.30
2019-05-26T16:48:04.673Z,25.30
2019-05-26T16:50:45.358Z,25.30
2019-05-26T16:53:21.426Z,25.30
2019-05-26T16:56:02.320Z,25.30
2019-05-26T16:58:30.147Z,25.40
2019-05-26T17:00:57.479Z,25.40
2019-05-26T17:03:24.899Z,25.40
2019-05-26T17:06:07.130Z,25.40
2019-05-26T17:08:21.502Z,25.30
2019-05-26T17:10:48.880Z,25.20
2019-05-26T17:13:16.286Z,25.20
2019-05-26T17:15:43.655Z,25.30
2019-05-26T17:18:11.086Z,25.20
2019-05-26T17:20:38.566Z,25.20
2019-05-26T17:23:05.998Z,25.10
2019-05-26T17:25:33.439Z,25.30
2019-05-26T17:28:00.862Z,25.20
2019-05-26T17:30:28.292Z,25.00
2019-05-26T17:32:55.631Z,25.00
2019-05-26T17:35:22.970Z,25.10
2019-05-26T17:37:50.274Z,25.20
2019-05-26T17:42:53.153Z,25.00
2019-05-26T17:45:20.721Z,25.10
2019-05-26T17:47:48.037Z,25.10
2019-05-26T17:50:15.565Z,25.10
2019-05-26T17:52:42.901Z,25.00
2019-05-26T17:55:10.451Z,25.00
2019-05-26T17:57:37.867Z,24.90
2019-05-26T18:00:05.997Z,24.80
2019-05-26T18:02:33.304Z,25.00
2019-05-26T18:05:00.673Z,24.90
2019-05-26T18:07:28.067Z,24.90
2019-05-26T18:09:55.495Z,24.90
2019-05-26T18:12:22.908Z,24.90
2019-05-26T18:14:50.244Z,25.00
2019-05-26T18:17:17.574Z,25.00
2019-05-26T18:19:44.904Z,25.00
2019-05-26T18:22:12.223Z,24.90
2019-05-26T18:24:39.563Z,24.90
2019-05-26T18:27:06.874Z,24.80
2019-05-26T18:29:34.240Z,24.80
2019-05-26T18:32:01.629Z,24.80
2019-05-26T18:34:29.022Z,24.70
2019-05-26T18:36:56.459Z,24.70
2019-05-26T18:39:23.835Z,24.70
2019-05-26T18:41:51.168Z,24.60
2019-05-26T18:44:18.533Z,24.60
2019-05-26T18:46:45.966Z,24.60
2019-05-26T18:49:13.275Z,24.50
2019-05-26T18:51:40.627Z,24.40
2019-05-26T18:54:07.981Z,24.30
2019-05-26T18:56:35.441Z,24.30
2019-05-26T18:59:02.772Z,24.20
2019-05-26T19:01:30.221Z,24.00
2019-05-26T19:03:57.547Z,24.00
2019-05-26T19:06:25.005Z,23.90
2019-05-26T19:08:52.339Z,23.80
2019-05-26T19:11:19.739Z,23.70
2019-05-26T19:13:47.108Z,23.60
2019-05-26T19:16:14.475Z,23.50
2019-05-26T19:18:41.839Z,23.40
2019-05-26T19:21:09.290Z,23.30
2019-05-26T19:23:36.635Z,23.20
2019-05-26T19:26:03.950Z,23.20
2019-05-26T19:28:31.291Z,23.20
2019-05-26T19:30:58.712Z,23.20
2019-05-26T19:33:26.208Z,23.10
2019-05-26T19:35:53.730Z,23.10
2019-05-26T19:38:21.150Z,23.10
2019-05-26T19:40:48.584Z,23.00
2019-05-26T19:43:15.935Z,22.90
2019-05-26T19:45:43.261Z,22.80
2019-05-26T19:48:10.593Z,22.80
2019-05-26T19:50:37.935Z,22.70
2019-05-26T19:53:05.304Z,22.60
2019-05-26T19:55:32.939Z,22.50
2019-05-26T19:58:00.498Z,22.40
2019-05-26T20:00:28.335Z,22.30
2019-05-26T20:02:55.739Z,22.20
2019-05-26T20:05:23.086Z,22.20
2019-05-26T20:07:50.433Z,22.20
2019-05-26T20:10:28.957Z,22.20
2019-05-26T20:12:56.341Z,22.20
2019-05-26T20:15:36.835Z,22.10
2019-05-26T20:18:13.150Z,22.10
2019-05-26T20:20:43.418Z,22.00
2019-05-26T20:23:10.875Z,21.90
2019-05-26T20:25:43.148Z,21.60
2019-05-26T20:28:10.621Z,21.50
2019-05-26T20:30:37.990Z,21.50
2019-05-26T20:33:05.644Z,21.40
2019-05-26T20:35:33.080Z,21.40
2019-05-26T20:38:04.867Z,21.40
2019-05-26T20:40:32.272Z,21.20
2019-05-26T20:42:59.617Z,21.20
2019-05-26T20:45:26.985Z,21.10
2019-05-26T20:47:54.270Z,21.10
2019-05-26T20:50:29.099Z,21.10
2019-05-26T20:52:50.877Z,21.10
2019-05-26T20:55:18.637Z,21.10
2019-05-26T20:57:46.200Z,21.00
2019-05-26T21:00:14.728Z,21.10
2019-05-26T21:02:42.427Z,21.10
2019-05-26T21:05:09.881Z,21.00
2019-05-26T21:07:37.194Z,21.00
2019-05-26T21:10:06.002Z,21.00
2019-05-26T21:12:33.476Z,20.90
2019-05-26T21:15:01.200Z,20.90
2019-05-26T21:17:28.773Z,20.80
2019-05-26T21:19:56.088Z,20.80
2019-05-26T21:22:23.434Z,20.70
2019-05-26T21:24:50.876Z,20.70
2019-05-26T21:27:18.291Z,20.60
2019-05-26T21:29:45.680Z,20.50
2019-05-26T21:32:13.039Z,20.50
2019-05-26T21:34:40.451Z,20.40
2019-05-26T21:37:07.787Z,20.40
2019-05-26T21:39:35.088Z,20.40
2019-05-26T21:42:02.468Z,20.40
2019-05-26T21:44:29.810Z,20.40
2019-05-26T21:46:57.142Z,20.40
2019-05-26T21:49:24.470Z,20.40
2019-05-26T21:51:51.765Z,20.40
2019-05-26T21:54:19.134Z,20.30
2019-05-26T21:56:46.531Z,20.30
2019-05-26T21:59:13.854Z,20.30
2019-05-26T22:01:41.269Z,20.20
2019-05-26T22:04:08.615Z,20.20
2019-05-26T22:06:35.911Z,20.20
2019-05-26T22:09:05.289Z,20.10
2019-05-26T22:11:32.621Z,20.10
2019-05-26T22:13:59.983Z,20.00
2019-05-26T22:16:27.390Z,20.00
2019-05-26T22:18:54.802Z,19.90
2019-05-26T22:21:22.277Z,20.00
2019-05-26T22:23:49.574Z,19.90
2019-05-26T22:26:16.895Z,19.90
2019-05-26T22:28:44.235Z,19.80
2019-05-26T22:31:11.605Z,19.80
2019-05-26T22:33:39.019Z,19.70
2019-05-26T22:36:06.329Z,19.70
2019-05-26T22:38:33.691Z,19.70
2019-05-26T22:41:01.004Z,19.60
2019-05-26T22:43:28.322Z,19.70
2019-05-26T22:45:55.664Z,19.60
2019-05-26T22:48:22.993Z,19.70
2019-05-26T22:50:50.344Z,19.60
2019-05-26T22:53:17.780Z,19.70
2019-05-26T22:55:45.138Z,19.60
2019-05-26T22:58:12.557Z,19.60
2019-05-26T23:00:39.919Z,19.50
2019-05-26T23:03:07.245Z,19.50
2019-05-26T23:05:34.545Z,19.50
2019-05-26T23:08:01.887Z,19.30
2019-05-26T23:10:29.212Z,19.20
2019-05-26T23:12:56.550Z,19.10
2019-05-26T23:15:23.948Z,18.80
2019-05-26T23:17:51.328Z,18.80
2019-05-26T23:20:18.753Z,18.90
2019-05-26T23:22:46.130Z,18.80
2019-05-26T23:25:13.496Z,18.70
2019-05-26T23:27:40.812Z,18.50
2019-05-26T23:30:08.344Z,18.60
2019-05-26T23:32:35.761Z,18.60
2019-05-26T23:35:03.268Z,18.70
2019-05-26T23:37:30.695Z,18.80
2019-05-26T23:39:57.975Z,18.80
2019-05-26T23:42:25.331Z,18.70
2019-05-26T23:44:52.635Z,18.60
2019-05-26T23:47:19.931Z,18.40
2019-05-26T23:49:47.286Z,18.00
2019-05-26T23:52:14.625Z,17.40
2019-05-26T23:54:41.929Z,17.10
2019-05-26T23:57:09.313Z,17.00
2019-05-26T23:59:36.667Z,17.00
